Abovyan, Armenia
Current Conditions -  °F | °C
As of 3:00 AM on Monday 26 Jan 2015 (Local Time) from UDYZ Reporting Station
Haze Haze  
Wind Chill: 25°   Ceiling: 10000
Heat Index: 25°   Visibility: 1.4mi
Dew Point: 21°   Wind: 0mph
Humidity: 86%   Direction: NA
Pressure: 30.3"   Gusts: NA
Location:  40.27°N, 44.62°E
Report Text: UDYZ 252200Z 00000MPS 2300 BR BKN100 M04/M06 Q1026 R09/000070NOSIG
Loading
Personal Weather Stations






























Interactive Weather Map New forecast layout! Learn more

10-Day Weather Forecast

Advertisements
Track Severe Weather on mobile